• Join FlightAware (Why Join?)
  • Login
  • US Flag 
01:57PM EDT


 

Airport Tracker/Info


-or-


 

Live Flight TrackerFlight Track Log ✈ EJA396 ✈ 01-May-2013 ✈ KCOD - KMSP

Flight Track Log - Related Links

Times and Time Zones

All times are in EDT time to prevent confusion due to time zone crossing. See the EJA396 flight status page for this flight to view local times or setup timezone preferences in your user account.

Time Position Orientation Groundspeed Altitude Reporting Facility
EDT Latitude Longitude Course Direction KTS MPH feet Rate Location/Type
11:08AM 44.5510 -108.6862 83° East  Level Estimated
11:09AM 44.5660 -108.5173 83° East  Level Estimated
11:10AM 44.5808 -108.3483 83° East  Level Estimated
11:10AM 44.2978 -108.6914 84° East 386 444 21,900  Level Salt Lake Center
11:11AM 44.5953 -108.1791 83° East  Level Estimated
11:11AM 44.2292 -108.5397 122° Southeast 410 472 25,200  Level Salt Lake Center
11:12AM 44.6096 -108.0099 83° East  Level Estimated
11:12AM 44.1692 -108.4050 122° Southeast 425 489 27,700  Level Salt Lake Center
11:13AM 44.6236 -107.8407 83° East  Level Estimated
11:14AM 44.6373 -107.6713 83° East  Level Estimated
11:14AM 44.1078 -108.2689 122° Southeast 433 498 29,700  Level Salt Lake Center
11:15AM 44.6509 -107.5019 84° East  Level Estimated
11:15AM 44.0333 -108.1061 122° Southeast 443 510 31,000  Level Salt Lake Center
11:16AM 44.6641 -107.3324 84° East  Level Estimated
11:16AM 43.9811 -107.9406 114° Southeast 494 568 31,000  Level Salt Lake Center
11:17AM 43.9703 -107.7317 94° East 484 557 33,100 1,920 Climbing Salt Lake Center
11:18AM 43.9733 -107.5669 88° East 456 525 35,000 1,860 Climbing Salt Lake Center
11:19AM 43.9786 -107.3717 88° East 454 522 37,000 1,140 Climbing Salt Lake Center
11:19AM 43.9825 -107.2581 87° East 452 520 37,000  Level Denver Center
11:20AM 43.9872 -107.0786 88° East 482 555 37,000  Level Denver Center
11:21AM 43.9881 -106.9878 89° East 493 567 37,000  Level Salt Lake Center
11:21AM 43.9914 -106.8547 88° East 499 574 37,000  Level Denver Center
11:22AM 43.9950 -106.6706 88° East 499 574 37,000  Level Denver Center
11:23AM 43.9992 -106.4853 88° East 500 575 37,000  Level Denver Center
11:24AM 44.0139 -106.2717 84° East 496 571 37,000  Level Denver Center
11:26AM 44.0306 -106.0875 83° East 499 574 37,000  Level Denver Center
11:27AM 44.0500 -105.8722 83° East 501 577 37,000  Level Denver Center
11:28AM 44.0656 -105.6881 83° East 501 577 37,000  Level Denver Center
11:29AM 44.0847 -105.4714 83° East 505 581 37,000  Level Denver Center
11:30AM 44.0986 -105.2864 84° East 504 580 37,000  Level Denver Center
11:31AM 44.1153 -105.0703 84° East 503 579 37,000  Level Denver Center
11:32AM 44.1300 -104.8836 84° East 505 581 37,000  Level Denver Center
11:33AM 44.1492 -104.6344 84° East 506 582 37,000  Level Denver Center
11:34AM 44.1625 -104.4453 84° East 510 587 37,000  Level Denver Center
11:35AM 44.1794 -104.2281 84° East 506 582 37,000  Level Denver Center
11:36AM 44.1892 -104.0719 85° East 507 583 37,000  Level Denver Center
11:37AM 44.2067 -103.8203 84° East 511 588 37,000  Level Denver Center
11:38AM 44.2200 -103.6319 84° East 510 587 37,000  Level Denver Center
11:39AM 44.2333 -103.4094 85° East 515 593 37,000  Level Denver Center
11:40AM 44.2464 -103.2194 84° East 514 592 37,000  Level Denver Center
11:41AM 44.2594 -103.0275 85° East 514 592 37,000  Level Denver Center
11:42AM 44.2706 -102.8283 85° East 515 593 37,000  Level Denver Center
11:43AM 44.2867 -102.5486 85° East 517 595 37,000  Level Denver Center
11:45AM 44.2961 -102.3492 86° East 516 594 37,000  Level Denver Center
11:46AM 44.3072 -102.1503 85° East 515 593 37,000  Level Denver Center
11:47AM 44.3178 -101.9500 86° East 517 595 37,000  Level Denver Center
11:48AM 44.3267 -101.7467 86° East 523 602 37,000  Level Denver Center
11:48AM 44.3356 -101.5856 86° East 522 601 37,000  Level Minneapolis Center
11:49AM 44.3439 -101.3822 87° East 524 603 37,000  Level Minneapolis Center
11:50AM 44.3464 -101.2986 88° East 526 605 37,000  Level Denver Center
11:50AM 44.3528 -101.1794 86° East 525 604 37,000  Level Minneapolis Center
11:51AM 44.3558 -101.0964 87° East 525 604 37,000  Level Denver Center
11:51AM 44.3619 -100.9775 86° East 525 604 37,000  Level Minneapolis Center
11:52AM 44.3703 -100.7767 87° East 523 602 37,000  Level Minneapolis Center
11:53AM 44.3789 -100.5767 86° East 521 600 37,000  Level Minneapolis Center
11:54AM 44.3861 -100.3767 87° East 519 597 37,000  Level Minneapolis Center
11:55AM 44.3933 -100.1753 87° East 521 600 37,000  Level Minneapolis Center
11:56AM 44.4019 -99.9325 87° East 523 602 37,000  Level Minneapolis Center
11:57AM 44.4089 -99.7300 87° East 524 603 37,000  Level Minneapolis Center
11:59AM 44.4153 -99.5286 87° East 523 602 37,000  Level Minneapolis Center
12:00PM 44.4222 -99.3247 87° East 527 606 37,000  Level Minneapolis Center
12:01PM 44.4281 -99.1264 88° East 517 595 37,000  Level Minneapolis Center
12:02PM 44.4336 -98.9292 88° East 511 588 37,000  Level Minneapolis Center
12:03PM 44.4389 -98.7289 88° East 514 592 37,000  Level Minneapolis Center
12:04PM 44.4450 -98.4497 88° East 514 592 37,000  Level Minneapolis Center
12:05PM 44.4508 -98.2106 88° East 514 592 37,000  Level Minneapolis Center
12:06PM 44.4539 -98.0119 89° East 513 590 37,000  Level Minneapolis Center
12:07PM 44.4581 -97.8142 88° East 511 588 37,000  Level Minneapolis Center
12:08PM 44.4581 -97.6183 90° East 508 585 37,000  Level Minneapolis Center
12:09PM 44.4617 -97.4203 88° East 509 586 37,000  Level Minneapolis Center
12:10PM 44.4631 -97.2239 89° East 507 583 37,000  Level Minneapolis Center
12:11PM 44.4658 -96.9883 89° East 505 581 37,000  Level Minneapolis Center
12:12PM 44.4675 -96.7892 89° East 505 581 37,000  Level Minneapolis Center
12:13PM 44.4689 -96.5953 89° East 503 579 37,000  Level Minneapolis Center
12:15PM 44.4686 -96.4008 90° East 502 578 37,000  Level Minneapolis Center
12:16PM 44.4742 -96.1711 88° East 498 573 37,000 -300 Level Minneapolis Center
12:17PM 44.4711 -95.9814 91° East 494 568 36,400 -1,620 Descending Minneapolis Center
12:18PM 44.4744 -95.7950 88° East 488 562 33,800 -2,520 Descending Minneapolis Center
12:19PM 44.4719 -95.5747 91° East 480 552 30,800 -2,700 Descending Minneapolis Center
12:20PM 44.4675 -95.3522 92° East 476 548 27,800 -2,640 Descending Minneapolis Center
12:21PM 44.4692 -95.1722 89° East 467 537 25,400 -2,220 Descending Minneapolis Center
12:22PM 44.4914 -95.0303 78° East 470 541 23,300 -2,520 Descending Minneapolis Center
12:23PM 44.5397 -94.8164 72° East 480 552 20,300 -2,520 Descending Minneapolis Center
12:24PM 44.5736 -94.6789 71° East 475 547 18,200 -2,340 Descending Minneapolis Center
12:25PM 44.6192 -94.4861 72° East 430 495 15,600 -2,220 Descending Minneapolis Center
12:26PM 44.6578 -94.3128 73° East 391 450 13,200 -2,040 Descending Minneapolis Center
12:27PM 44.6936 -94.1564 72° East 338 389 11,100 -1,020 Descending Minneapolis Center
12:28PM 44.7231 -94.0247 72° East 354 407 11,100  Level Minneapolis Center
12:29PM 44.7522 -93.8944 72° East 350 403 11,100  Level Minneapolis Center
12:30PM 44.7758 -93.7881 73° East 355 409 11,100  Level Minneapolis Center
12:31PM 44.8111 -93.6300 72° East 353 406 11,100  Level Minneapolis Center
12:32PM 44.8403 -93.4961 73° East 356 410 11,100 -1,020 Level Minneapolis Center
12:33PM 44.8444 -93.3594 87° East 294 338 9,100 -1,380 Descending Minneapolis Center
12:35PM 44.8022 -93.2692 123° Southeast 277 319 8,000 -1,380 Descending Minneapolis Center
12:36PM 44.7564 -93.1744 124° Southeast 276 318 6,100 -1,860 Descending Minneapolis Center
12:37PM 44.7083 -93.0722 123° Southeast 257 296 4,200 -1,020 Descending Minneapolis Center
12:38PM 44.7244 -93.0097 70° East 195 224 4,100 -300 Descending Minneapolis Center
12:39PM 44.7647 -92.9928 17° North 162 186 3,600 -540 Descending Minneapolis Center
12:40PM 44.7983 -93.0286 323° Northwest 153 176 3,100 -300 Descending Minneapolis Center
12:41PM 44.8217 -93.0822 302° West 161 185 3,000 -480 Descending Minneapolis Center
12:42PM 44.8436 -93.1328 301° West 123 142 2,100 -720 Descending Minneapolis Center
12:43PM 44.8619 -93.1747 302° West 106 122 1,400 -720 Descending Minneapolis Center
12:45PM 44.8667 -93.2167 28° Northeast  Level FlightAware Approximate
12:52PM 44.8820 -93.2218 28° Northeast  Level Estimated